Time;durP1;ratioP1;P1;durP2;ratioP2;P2;SDS_P1;SDS_P2;PMS_P1;PMS_P2;Temp;Humidity;BMP_temperature;BMP_pressure;BME280_temperature;BME280_humidity;BME280_pressure;Samples;Min_cycle;Max_cycle;Signal;HPM_P1;HPM_P2
2024/01/02 00:01:56;;;;;;;;;;;;;;;4.36;94.24;99409.32;109850;1283;23168;-84
2024/01/02 00:04:27;;;;;;;;;;;;;;;4.34;94.39;99416.81;110070;1283;22471;-86
2024/01/02 00:07:18;;;;;;;;;;;;;;;4.32;94.53;99418.39;110077;1281;22457;-87
2024/01/02 00:13:27;;;;;;;;;;;;;;;4.35;94.43;99422.04;107073;1311;557254;-85
2024/01/02 00:16:39;;;;;;;;;;;;;;;4.35;94.34;99423.27;107239;1307;22601;-83
2024/01/02 00:19:07;;;;;;;;;;;;;;;4.30;94.02;99421.17;109261;1286;22591;-84
2024/01/02 00:21:33;;;;;;;;;;;;;;;4.26;94.19;99421.86;108376;1272;23929;-84
2024/01/02 00:24:02;;;;;;;;;;;;;;;4.30;94.72;99425.88;107859;1289;22784;-83
2024/01/02 00:26:30;;;;;;;;;;;;;;;4.35;94.40;99430.77;107894;1287;421643;-84
2024/01/02 00:28:59;;;;;;;;;;;;;;;4.37;94.63;99432.15;107823;1294;23946;-82
2024/01/02 00:31:27;;;;;;;;;;;;;;;4.39;94.43;99430.23;107220;1292;22802;-82
2024/01/02 00:33:53;;;;;;;;;;;;;;;4.34;93.99;99426.06;107313;1289;22801;-83
2024/01/02 00:36:22;;;;;;;;;;;;;;;4.33;94.30;99427.27;106257;1295;23944;-83
2024/01/02 00:38:49;;;;;;;;;;;;;;;4.36;94.31;99428.85;105858;1295;22597;-86
2024/01/02 00:41:16;;;;;;;;;;;;;;;4.37;94.29;99432.69;106009;1287;22670;-85
2024/01/02 00:43:44;;;;;;;;;;;;;;;4.38;94.49;99433.55;107013;1287;22506;-84
2024/01/02 00:46:11;;;;;;;;;;;;;;;4.39;94.27;99435.64;107196;1275;24371;-86
2024/01/02 00:49:21;;;;;;;;;;;;;;;4.36;94.09;99437.04;104906;1307;557581;-86
2024/01/02 00:51:48;;;;;;;;;;;;;;;4.30;94.14;99436.86;106814;1288;26016;-83
2024/01/02 00:54:16;;;;;;;;;;;;;;;4.28;94.30;99438.77;107590;1286;23835;-84
2024/01/02 00:56:42;;;;;;;;;;;;;;;4.30;94.37;99438.78;107910;1288;22531;-84
2024/01/02 00:59:13;;;;;;;;;;;;;;;4.29;94.16;99439.83;107551;1288;25232;-84
2024/01/02 01:01:40;;;;;;;;;;;;;;;4.27;94.32;99438.42;107670;1274;349582;-83
2024/01/02 01:04:09;;;;;;;;;;;;;;;4.22;94.30;99441.36;108959;1272;22948;-84
2024/01/02 01:06:36;;;;;;;;;;;;;;;4.26;94.94;99440.17;108945;1274;22554;-83
2024/01/02 01:09:03;;;;;;;;;;;;;;;4.33;94.90;99440.35;108413;1274;24006;-83
2024/01/02 01:11:30;;;;;;;;;;;;;;;4.38;94.74;99437.38;107589;1274;22484;-83
2024/01/02 01:13:57;;;;;;;;;;;;;;;4.44;94.77;99436.34;107186;1274;25404;-85
2024/01/02 01:16:24;;;;;;;;;;;;;;;4.45;94.34;99432.15;107265;1274;22503;-85
2024/01/02 01:18:51;;;;;;;;;;;;;;;4.45;94.32;99435.13;107060;1266;25703;-88
2024/01/02 01:21:19;;;;;;;;;;;;;;;4.44;94.50;99432.86;110584;1272;22381;-86
2024/01/02 01:23:50;;;;;;;;;;;;;;;4.46;94.60;99432.52;110049;1280;22400;-85
2024/01/02 01:26:19;;;;;;;;;;;;;;;4.50;94.70;99429.38;109974;1280;23239;-85
2024/01/02 01:28:46;;;;;;;;;;;;;;;4.59;94.86;99432.34;110058;1280;22404;-84
2024/01/02 01:31:35;;;;;;;;;;;;;;;4.65;94.39;99430.94;109998;1280;22705;-85
2024/01/02 01:34:03;;;;;;;;;;;;;;;4.65;94.15;99430.41;109735;1278;22415;-85
2024/01/02 01:36:30;;;;;;;;;;;;;;;4.67;94.22;99429.89;109745;1286;22424;-85
2024/01/02 01:38:58;;;;;;;;;;;;;;;4.67;93.85;99433.39;109747;1286;23253;-84
2024/01/02 01:41:25;;;;;;;;;;;;;;;4.66;93.85;99430.59;109611;1284;22437;-85
2024/01/02 01:43:52;;;;;;;;;;;;;;;4.65;93.72;99430.77;109669;1289;22440;-85
2024/01/02 01:46:19;;;;;;;;;;;;;;;4.68;93.95;99434.60;109230;1292;22424;-84
2024/01/02 01:48:54;;;;;;;;;;;;;;;4.72;93.84;99428.33;109362;1292;22733;-83
2024/01/02 01:51:21;;;;;;;;;;;;;;;4.75;93.91;99430.23;109294;1287;22480;-83
2024/01/02 01:53:48;;;;;;;;;;;;;;;4.81;93.89;99429.37;109680;1287;22439;-83
2024/01/02 01:56:14;;;;;;;;;;;;;;;4.85;93.77;99432.33;109751;1287;22426;-84
2024/01/02 01:58:41;;;;;;;;;;;;;;;4.82;93.01;99435.30;109723;1284;22520;-83
2024/01/02 02:01:07;;;;;;;;;;;;;;;4.76;93.00;99434.25;109847;1283;22465;-83
2024/01/02 02:03:35;;;;;;;;;;;;;;;4.67;92.80;99436.17;109890;1278;22419;-83
2024/01/02 02:06:02;;;;;;;;;;;;;;;4.66;93.53;99435.48;110080;1278;22843;-84
2024/01/02 02:08:29;;;;;;;;;;;;;;;4.70;93.67;99434.95;110338;1274;22407;-83
2024/01/02 02:10:56;;;;;;;;;;;;;;;4.73;93.54;99429.03;110603;1274;22387;-85
2024/01/02 02:13:32;;;;;;;;;;;;;;;4.74;93.58;99428.67;110513;1274;22325;-85
2024/01/02 02:16:01;;;;;;;;;;;;;;;4.74;93.29;99429.90;110541;1274;22408;-84
2024/01/02 02:18:28;;;;;;;;;;;;;;;4.73;93.24;99429.37;110567;1270;23203;-84
2024/01/02 02:20:56;;;;;;;;;;;;;;;4.73;93.55;99434.60;110087;1280;22531;-84
2024/01/02 02:23:22;;;;;;;;;;;;;;;4.75;93.40;99432.34;110118;1280;22444;-83
2024/01/02 02:25:49;;;;;;;;;;;;;;;4.76;93.37;99438.09;110235;1280;22366;-86
2024/01/02 02:28:15;;;;;;;;;;;;;;;4.73;93.02;99437.91;110330;1278;22406;-86
2024/01/02 02:30:43;;;;;;;;;;;;;;;4.69;93.19;99433.90;109953;1286;22412;-86
2024/01/02 02:33:30;;;;;;;;;;;;;;;4.69;93.41;99434.77;109860;1289;22407;-87
2024/01/02 02:35:59;;;;;;;;;;;;;;;4.68;93.25;99437.22;109761;1294;22471;-87
2024/01/02 02:38:50;;;;;;;;;;;;;;;4.68;93.37;99435.64;109535;1294;22432;-86
2024/01/02 02:41:23;;;;;;;;;;;;;;;4.64;93.16;99437.75;109398;1294;22490;-84
2024/01/02 02:43:50;;;;;;;;;;;;;;;4.62;93.45;99436.70;109242;1292;22455;-83
2024/01/02 02:46:18;;;;;;;;;;;;;;;4.60;93.39;99433.56;109381;1290;22467;-82
2024/01/02 02:48:48;;;;;;;;;;;;;;;4.55;93.36;99429.55;109735;1284;22478;-81
2024/01/02 02:51:17;;;;;;;;;;;;;;;4.57;93.94;99433.21;109749;1284;22497;-85
2024/01/02 02:53:45;;;;;;;;;;;;;;;4.54;93.54;99431.48;109975;1280;22471;-85
2024/01/02 02:56:15;;;;;;;;;;;;;;;4.50;93.92;99430.60;110064;1280;22382;-85
2024/01/02 02:58:41;;;;;;;;;;;;;;;4.53;94.35;99434.79;109970;1280;22434;-84
2024/01/02 03:01:08;;;;;;;;;;;;;;;4.52;94.20;99434.43;109999;1281;22369;-85
2024/01/02 03:03:36;;;;;;;;;;;;;;;4.56;94.43;99435.48;110062;1281;22407;-85
2024/01/02 03:06:02;;;;;;;;;;;;;;;4.63;94.57;99435.46;109644;1287;22422;-85
2024/01/02 03:08:29;;;;;;;;;;;;;;;4.70;94.47;99434.25;109740;1282;22437;-85
2024/01/02 03:10:59;;;;;;;;;;;;;;;4.72;94.00;99430.42;109986;1281;22429;-84
2024/01/02 03:13:28;;;;;;;;;;;;;;;4.67;93.96;99433.90;109790;1286;22494;-84
2024/01/02 03:15:54;;;;;;;;;;;;;;;4.63;94.08;99433.91;109774;1286;22452;-84
2024/01/02 03:18:22;;;;;;;;;;;;;;;4.61;94.29;99432.16;109781;1286;23134;-85
2024/01/02 03:20:49;;;;;;;;;;;;;;;4.61;94.40;99430.26;109957;1286;22485;-85
2024/01/02 03:23:17;;;;;;;;;;;;;;;4.63;94.50;99432.33;109958;1281;22468;-85
2024/01/02 03:25:44;;;;;;;;;;;;;;;4.65;94.74;99426.59;110067;1280;22462;-87
2024/01/02 03:28:11;;;;;;;;;;;;;;;4.70;94.70;99426.76;110170;1280;22893;-85
2024/01/02 03:30:40;;;;;;;;;;;;;;;4.68;94.45;99427.28;110131;1276;23053;-85
2024/01/02 03:33:07;;;;;;;;;;;;;;;4.68;94.87;99427.09;110544;1268;23022;-85
2024/01/02 03:35:35;;;;;;;;;;;;;;;4.71;95.03;99428.86;110542;1276;22436;-85
2024/01/02 03:38:02;;;;;;;;;;;;;;;4.70;94.74;99426.76;110219;1276;22407;-85
2024/01/02 03:40:28;;;;;;;;;;;;;;;4.67;94.84;99422.92;110225;1278;22389;-85
2024/01/02 03:42:55;;;;;;;;;;;;;;;4.69;94.90;99420.82;110181;1278;23280;-83
2024/01/02 03:45:21;;;;;;;;;;;;;;;4.70;94.79;99421.52;110409;1278;22413;-83
2024/01/02 03:47:47;;;;;;;;;;;;;;;4.66;94.55;99428.51;110284;1278;22578;-82
2024/01/02 03:50:14;;;;;;;;;;;;;;;4.65;95.06;99424.31;110285;1278;23605;-83
2024/01/02 03:52:41;;;;;;;;;;;;;;;4.69;95.36;99425.02;110426;1279;22396;-84
2024/01/02 03:55:08;;;;;;;;;;;;;;;4.68;95.02;99425.36;110401;1275;22419;-85
2024/01/02 03:57:35;;;;;;;;;;;;;;;4.71;95.05;99423.63;110523;1276;22376;-83
2024/01/02 04:00:04;;;;;;;;;;;;;;;4.74;95.17;99426.40;110518;1273;22935;-84
2024/01/02 04:02:31;;;;;;;;;;;;;;;4.78;95.05;99426.56;110475;1276;22295;-85
2024/01/02 04:08:14;;;;;;;;;;;;;;;4.87;95.14;99427.77;110521;1275;22799;-85
2024/01/02 04:10:42;;;;;;;;;;;;;;;4.88;95.08;99426.21;110516;1269;22391;-85
2024/01/02 04:16:20;;;;;;;;;;;;;;;4.88;94.71;99424.46;109987;1281;22372;-86
2024/01/02 04:18:50;;;;;;;;;;;;;;;4.84;94.29;99421.67;110008;1280;22870;-86
2024/01/02 04:21:41;;;;;;;;;;;;;;;4.77;94.63;99418.20;110014;1281;22476;-86
2024/01/02 04:24:10;;;;;;;;;;;;;;;4.76;94.99;99418.20;109978;1280;23101;-85
2024/01/02 04:26:37;;;;;;;;;;;;;;;4.78;94.99;99423.08;110013;1277;22209;-85
2024/01/02 04:29:04;;;;;;;;;;;;;;;4.76;94.96;99422.92;110007;1280;22396;-85
2024/01/02 04:31:30;;;;;;;;;;;;;;;4.78;94.97;99419.77;110002;1281;22410;-86
2024/01/02 04:40:28;;;;;;;;;;;;;;;4.79;94.84;99417.16;110447;1274;23101;-85
2024/01/02 04:42:55;;;;;;;;;;;;;;;4.79;95.04;99418.72;110530;1272;22339;-85
2024/01/02 04:45:21;;;;;;;;;;;;;;;4.83;95.33;99421.52;110492;1274;22364;-85
2024/01/02 04:47:48;;;;;;;;;;;;;;;4.91;95.83;99421.33;110127;1275;23198;-84
2024/01/02 04:50:15;;;;;;;;;;;;;;;5.00;95.57;99423.06;110094;1279;22678;-85
2024/01/02 04:52:44;;;;;;;;;;;;;;;5.03;94.99;99422.87;110106;1279;22430;-84
2024/01/02 04:55:12;;;;;;;;;;;;;;;5.03;95.13;99424.45;109773;1280;22523;-84
2024/01/02 04:57:38;;;;;;;;;;;;;;;5.01;94.63;99423.23;109745;1286;22444;-83
2024/01/02 05:00:05;;;;;;;;;;;;;;;5.00;94.74;99423.58;109827;1286;22427;-83
2024/01/02 05:02:32;;;;;;;;;;;;;;;5.04;95.06;99424.98;109743;1280;22488;-86
2024/01/02 05:04:58;;;;;;;;;;;;;;;5.06;94.62;99424.44;109758;1280;22411;-85
2024/01/02 05:07:25;;;;;;;;;;;;;;;4.98;94.22;99420.27;109975;1281;22489;-85
2024/01/02 05:09:52;;;;;;;;;;;;;;;4.95;94.83;99423.41;109802;1286;22561;-86
2024/01/02 05:12:19;;;;;;;;;;;;;;;4.96;94.79;99426.91;109847;1279;22420;-86
2024/01/02 05:14:46;;;;;;;;;;;;;;;4.94;94.76;99422.36;110176;1279;22386;-86
2024/01/02 05:17:13;;;;;;;;;;;;;;;4.92;94.57;99425.86;110163;1279;22408;-86
2024/01/02 05:19:40;;;;;;;;;;;;;;;4.91;94.56;99429.87;110056;1279;22469;-86
2024/01/02 05:22:07;;;;;;;;;;;;;;;4.88;94.64;99430.39;110141;1279;22402;-87
2024/01/02 05:24:33;;;;;;;;;;;;;;;4.86;94.75;99426.39;110142;1279;22398;-87
2024/01/02 05:27:04;;;;;;;;;;;;;;;4.87;95.17;99428.83;109875;1284;22403;-87
2024/01/02 05:29:31;;;;;;;;;;;;;;;4.91;95.15;99429.52;110008;1283;22427;-87
2024/01/02 05:31:58;;;;;;;;;;;;;;;4.96;95.25;99433.52;109675;1288;22437;-85
2024/01/02 05:34:26;;;;;;;;;;;;;;;5.02;95.08;99436.48;109822;1283;23208;-84
2024/01/02 05:36:52;;;;;;;;;;;;;;;5.02;95.07;99435.97;110040;1281;23140;-85
2024/01/02 05:39:19;;;;;;;;;;;;;;;5.04;95.09;99438.57;109965;1283;22409;-84
2024/01/02 05:41:45;;;;;;;;;;;;;;;5.05;94.87;99438.58;109643;1289;22442;-84
2024/01/02 05:44:13;;;;;;;;;;;;;;;5.02;94.65;99436.66;109770;1284;22501;-85
2024/01/02 05:46:39;;;;;;;;;;;;;;;5.02;94.82;99439.98;109941;1284;22412;-85
2024/01/02 05:49:08;;;;;;;;;;;;;;;5.02;94.81;99439.11;109952;1279;22447;-86
2024/01/02 05:51:34;;;;;;;;;;;;;;;5.06;95.07;99437.52;110156;1279;22441;-86
2024/01/02 05:54:02;;;;;;;;;;;;;;;5.09;95.03;99438.91;109803;1286;22452;-85
2024/01/02 05:56:28;;;;;;;;;;;;;;;5.09;94.85;99441.01;109799;1286;22432;-85
2024/01/02 05:58:55;;;;;;;;;;;;;;;5.10;95.00;99440.13;109914;1280;22575;-86
2024/01/02 06:01:21;;;;;;;;;;;;;;;5.08;94.99;99446.23;109932;1285;23231;-84
2024/01/02 06:03:47;;;;;;;;;;;;;;;5.10;95.05;99448.16;109873;1283;22404;-86
2024/01/02 06:06:14;;;;;;;;;;;;;;;5.09;94.81;99445.19;109744;1291;22424;-85
2024/01/02 06:08:42;;;;;;;;;;;;;;;5.08;94.78;99445.73;109716;1289;22446;-85
2024/01/02 06:11:10;;;;;;;;;;;;;;;5.04;94.66;99441.90;109249;1295;22406;-85
2024/01/02 06:13:36;;;;;;;;;;;;;;;4.96;94.73;99440.34;109561;1289;22514;-85
2024/01/02 06:16:03;;;;;;;;;;;;;;;4.89;95.02;99437.55;109582;1295;22405;-85
2024/01/02 06:18:31;;;;;;;;;;;;;;;4.88;95.39;99440.34;109664;1292;22433;-85
2024/01/02 06:20:57;;;;;;;;;;;;;;;4.93;95.96;99441.56;109451;1295;22473;-86
2024/01/02 06:23:26;;;;;;;;;;;;;;;4.99;95.85;99441.72;109396;1292;22463;-86
2024/01/02 06:25:52;;;;;;;;;;;;;;;5.04;95.87;99443.81;109582;1288;22433;-86
2024/01/02 06:28:20;;;;;;;;;;;;;;;5.06;95.55;99444.68;109778;1281;23267;-86
2024/01/02 06:30:47;;;;;;;;;;;;;;;5.03;95.38;99446.79;110030;1281;22429;-85
2024/01/02 06:33:15;;;;;;;;;;;;;;;5.03;95.46;99447.30;109667;1289;23225;-87
2024/01/02 06:35:43;;;;;;;;;;;;;;;5.00;95.31;99449.93;109701;1289;22460;-86
2024/01/02 06:38:11;;;;;;;;;;;;;;;4.95;95.36;99452.55;109605;1289;22346;-86
2024/01/02 06:44:28;;;;;;;;;;;;;;;4.88;95.50;99458.32;109646;1289;22456;-85
2024/01/02 06:47:19;;;;;;;;;;;;;;;4.83;95.72;99459.19;109738;1289;22556;-85
2024/01/02 06:49:46;;;;;;;;;;;;;;;4.82;95.72;99457.27;109707;1289;23131;-86
2024/01/02 06:52:12;;;;;;;;;;;;;;;4.83;95.98;99457.80;109589;1284;22395;-86
2024/01/02 06:58:23;;;;;;;;;;;;;;;4.79;96.18;99454.13;109982;1282;22372;-87
2024/01/02 07:05:01;;;;;;;;;;;;;;;4.81;96.17;99458.67;109891;1286;22401;-89
2024/01/02 07:08:57;;;;;;;;;;;;;;;4.82;96.08;99457.98;109658;1290;22421;-89
2024/01/02 07:12:53;;;;;;;;;;;;;;;4.78;96.06;99454.31;109644;1290;23216;-89
2024/01/02 07:16:10;;;;;;;;;;;;;;;4.81;96.51;99453.61;109648;1290;23083;-88
2024/01/02 07:20:08;;;;;;;;;;;;;;;;;;;;;
2024/01/02 07:23:45;;;;;;;;;;;;;;;4.81;95.90;99449.95;109139;1295;22452;-92
2024/01/02 07:27:40;;;;;;;;;;;;;;;4.83;96.16;99450.98;108314;1304;22390;-85
2024/01/02 07:30:27;;;;;;;;;;;;;;;4.87;96.18;99444.35;108243;1305;22443;-86
2024/01/02 07:32:55;;;;;;;;;;;;;;;4.94;96.19;99443.66;108030;1305;23074;-86
2024/01/02 07:35:26;;;;;;;;;;;;;;;5.02;95.94;99446.78;107499;1308;23363;-86
2024/01/02 07:37:54;;;;;;;;;;;;;;;5.00;95.29;99447.84;107593;1290;22476;-86
2024/01/02 07:40:21;;;;;;;;;;;;;;;4.98;95.66;99450.30;107999;1304;22468;-87
2024/01/02 07:42:50;;;;;;;;;;;;;;;4.99;95.44;99452.73;107630;1304;23245;-86
2024/01/02 07:45:20;;;;;;;;;;;;;;;4.97;95.44;99453.44;107610;1305;23272;-86
2024/01/02 07:48:07;;;;;;;;;;;;;;;4.95;95.09;99453.77;107416;1311;22445;-85
2024/01/02 07:50:35;;;;;;;;;;;;;;;4.98;95.61;99453.25;107022;1316;22510;-84
2024/01/02 07:53:19;;;;;;;;;;;;;;;5.01;95.48;99453.08;107019;1307;22470;-85
2024/01/02 07:55:48;;;;;;;;;;;;;;;5.01;95.44;99451.86;107232;1307;22490;-85
2024/01/02 07:58:15;;;;;;;;;;;;;;;5.00;95.29;99456.03;107372;1307;22469;-84
2024/01/02 08:00:49;;;;;;;;;;;;;;;4.99;95.20;99457.78;107453;1308;22534;-85
2024/01/02 08:03:16;;;;;;;;;;;;;;;4.93;94.88;99455.17;107699;1301;22474;-86
2024/01/02 08:05:42;;;;;;;;;;;;;;;4.91;95.17;99459.36;108290;1302;22463;-87
2024/01/02 08:08:09;;;;;;;;;;;;;;;4.89;95.02;99461.27;108583;1296;22445;-86
2024/01/02 08:22:01;;;;;;;;;;;;;;;5.03;96.10;99457.26;109379;1295;22434;-87
2024/01/02 08:25:29;;;;;;;;;;;;;;;5.11;95.52;99459.15;108983;1289;22430;-88
2024/01/02 08:28:19;;;;;;;;;;;;;;;5.09;95.22;99455.14;109753;1289;22421;-86
2024/01/02 08:30:45;;;;;;;;;;;;;;;5.11;95.84;99450.62;108956;1295;22529;-87
2024/01/02 08:33:16;;;;;;;;;;;;;;;5.19;96.10;99452.34;109764;1289;22460;-85
2024/01/02 08:43:59;;;;;;;;;;;;;;;5.26;95.21;99457.55;109400;1295;23192;-89
2024/01/02 08:46:51;;;;;;;;;;;;;;;5.25;94.95;99458.61;108839;1296;22446;-87
2024/01/02 08:49:19;;;;;;;;;;;;;;;5.26;95.11;99463.14;109034;1296;22455;-89
2024/01/02 08:51:50;;;;;;;;;;;;;;;5.21;94.80;99460.36;109281;1296;23101;-88
2024/01/02 08:55:05;;;;;;;;;;;;;;;5.18;95.11;99457.94;108833;1294;22430;-88
2024/01/02 08:58:18;;;;;;;;;;;;;;;5.16;95.29;99459.34;109157;1298;22442;-89
2024/01/02 09:01:47;;;;;;;;;;;;;;;5.16;95.32;99454.96;108487;1302;22452;-89
2024/01/02 09:04:24;;;;;;;;;;;;;;;5.18;95.35;99459.32;108643;1301;22478;-89
2024/01/02 09:07:16;;;;;;;;;;;;;;;5.21;95.38;99458.09;108549;1301;22496;-88
2024/01/02 09:10:08;;;;;;;;;;;;;;;5.19;95.41;99460.89;108073;1305;22476;-88
2024/01/02 09:13:07;;;;;;;;;;;;;;;5.19;95.57;99459.85;107752;1309;22469;-89
2024/01/02 09:16:38;;;;;;;;;;;;;;;5.22;95.52;99462.80;108081;1305;22427;-89
2024/01/02 09:19:47;;;;;;;;;;;;;;;5.21;95.14;99469.79;107915;1306;22481;-89
2024/01/02 09:22:40;;;;;;;;;;;;;;;5.19;95.53;99470.66;108040;1307;22471;-87
2024/01/02 09:25:40;;;;;;;;;;;;;;;5.22;95.51;99472.75;107833;1307;22537;-88
2024/01/02 09:28:30;;;;;;;;;;;;;;;5.23;95.67;99474.15;108391;1303;22444;-89
2024/01/02 09:31:30;;;;;;;;;;;;;;;;;;;;;
2024/01/02 09:41:33;;;;;;;;;;;;;;;5.40;95.07;99467.48;108666;1294;22598;-89
2024/01/02 09:44:49;;;;;;;;;;;;;;;5.44;95.22;99470.61;108674;1302;22445;-90
2024/01/02 09:47:54;;;;;;;;;;;;;;;5.52;95.33;99470.41;108523;1302;22437;-90
2024/01/02 09:51:09;;;;;;;;;;;;;;;5.58;95.23;99472.84;108801;1298;22480;-88
2024/01/02 09:54:36;;;;;;;;;;;;;;;5.66;95.25;99476.83;108991;1298;22398;-88
2024/01/02 09:57:52;;;;;;;;;;;;;;;5.73;94.97;99477.48;108908;1298;22423;-89
2024/01/02 10:01:10;;;;;;;;;;;;;;;5.73;94.79;99473.46;108869;1301;22445;-87
2024/01/02 10:04:40;;;;;;;;;;;;;;;5.74;94.73;99480.28;107970;1308;22461;-90
2024/01/02 10:07:58;;;;;;;;;;;;;;;5.73;94.70;99479.41;107475;1314;22558;-89
2024/01/02 10:11:57;;;;;;;;;;;;;;;5.65;94.25;99473.16;107311;1317;22474;-91
2024/01/02 10:15:52;;;;;;;;;;;;;;;5.60;94.62;99476.14;106996;1320;22451;-89
2024/01/02 10:19:55;;;;;;;;;;;;;;;5.52;94.33;99474.42;106118;1309;557073;-88
2024/01/02 10:22:41;;;;;;;;;;;;;;;5.45;94.57;99468.67;108398;1288;22498;-87
2024/01/02 10:25:14;;;;;;;;;;;;;;;5.45;95.10;99468.16;108013;1289;25258;-87
2024/01/02 10:28:08;;;;;;;;;;;;;;;5.46;94.89;99463.79;106764;1295;23136;-87
2024/01/02 10:30:48;;;;;;;;;;;;;;;5.46;95.09;99459.07;107349;1295;24273;-87
2024/01/02 10:43:45;;;;;;;;;;;;;;;5.59;94.94;99434.05;107604;1290;25678;-90
2024/01/02 10:47:23;;;;;;;;;;;;;;;5.61;94.75;99427.77;106585;1299;22510;-88
2024/01/02 10:54:09;;;;;;;;;;;;;;;5.68;94.64;99413.05;103953;1290;6411562;-91
2024/01/02 10:58:17;;;;;;;;;;;;;;;;;;;;;
2024/01/02 11:01:41;;;;;;;;;;;;;;;;;;;;;
2024/01/02 11:05:25;;;;;;;;;;;;;;;;;;;;;
2024/01/02 11:09:06;;;;;;;;;;;;;;;5.59;94.77;99402.27;109366;1293;22597;-90
2024/01/02 11:12:53;;;;;;;;;;;;;;;;;;;;;
2024/01/02 11:16:52;;;;;;;;;;;;;;;;;;;;;
2024/01/02 11:20:28;;;;;;;;;;;;;;;5.79;94.95;99400.23;108510;1301;22649;-91
2024/01/02 11:24:20;;;;;;;;;;;;;;;5.76;95.02;99403.23;108369;1304;22574;-87
2024/01/02 11:28:07;;;;;;;;;;;;;;;5.75;94.54;99403.23;108531;1304;22550;-90
2024/01/02 11:31:52;;;;;;;;;;;;;;;;;;;;;
2024/01/02 11:35:13;;;;;;;;;;;;;;;5.59;94.87;99400.17;108175;1299;22575;-90
2024/01/02 11:39:13;;;;;;;;;;;;;;;5.54;95.01;99399.48;107274;1308;23900;-88
2024/01/02 11:42:37;;;;;;;;;;;;;;;5.60;95.54;99394.05;107654;1308;22533;-90
2024/01/02 11:46:17;;;;;;;;;;;;;;;;;;;;;
2024/01/02 11:49:58;;;;;;;;;;;;;;;5.52;95.57;99384.48;106744;1306;22594;-91
2024/01/02 11:53:46;;;;;;;;;;;;;;;5.53;95.53;99378.89;107135;1306;22571;-89
2024/01/02 11:57:43;;;;;;;;;;;;;;;5.56;95.57;99378.53;106059;1301;23007;-87
2024/01/02 12:01:14;;;;;;;;;;;;;;;5.66;95.69;99378.12;106633;1295;22815;-89
2024/01/02 12:04:45;;;;;;;;;;;;;;;5.72;94.91;99374.42;107145;1291;22572;-87
2024/01/02 12:28:29;;;;;;;;;;;;;;;6.02;93.74;99344.19;104925;1306;557239;-90
2024/01/02 12:31:42;;;;;;;;;;;;;;;6.07;93.77;99339.82;106707;1292;482457;-86
2024/01/02 12:34:22;;;;;;;;;;;;;;;6.06;93.36;99341.73;106293;1295;22484;-86
2024/01/02 12:37:28;;;;;;;;;;;;;;;6.07;93.51;99337.71;106865;1297;22544;-85
2024/01/02 12:40:25;;;;;;;;;;;;;;;6.08;93.54;99335.25;106537;1301;23804;-85
2024/01/02 12:43:09;;;;;;;;;;;;;;;6.14;93.54;99330.13;105903;1299;22563;-86
2024/01/02 12:45:43;;;;;;;;;;;;;;;6.18;93.26;99329.05;107620;1310;22445;-85
2024/01/02 12:48:26;;;;;;;;;;;;;;;6.17;92.60;99328.54;107553;1305;23359;-85
2024/01/02 12:50:56;;;;;;;;;;;;;;;6.15;92.70;99323.13;107914;1306;23098;-84
2024/01/02 12:53:33;;;;;;;;;;;;;;;6.16;92.54;99319.46;108359;1301;22468;-85
2024/01/02 12:56:05;;;;;;;;;;;;;;;6.21;92.66;99315.05;108482;1301;23238;-84
2024/01/02 12:58:34;;;;;;;;;;;;;;;6.27;92.29;99308.35;107839;1307;23176;-85
2024/01/02 13:01:03;;;;;;;;;;;;;;;6.33;92.07;99310.05;108011;1302;22548;-84
2024/01/02 13:03:32;;;;;;;;;;;;;;;6.35;91.72;99311.61;108286;1299;22473;-84
2024/01/02 13:06:01;;;;;;;;;;;;;;;6.39;91.56;99314.18;108298;1303;22479;-83
2024/01/02 13:08:30;;;;;;;;;;;;;;;6.43;91.71;99311.35;108192;1303;23254;-84
2024/01/02 13:10:58;;;;;;;;;;;;;;;6.48;91.86;99313.23;108536;1297;22434;-83
2024/01/02 13:13:26;;;;;;;;;;;;;;;6.51;91.74;99315.12;108683;1298;22430;-83
2024/01/02 13:15:57;;;;;;;;;;;;;;;6.53;91.79;99310.91;108489;1296;22443;-83
2024/01/02 13:18:24;;;;;;;;;;;;;;;6.55;91.58;99311.58;108502;1302;22435;-83
2024/01/02 13:20:53;;;;;;;;;;;;;;;6.55;91.12;99313.68;108456;1295;23116;-84
2024/01/02 13:23:20;;;;;;;;;;;;;;;6.53;90.51;99316.15;108507;1292;22478;-84
2024/01/02 13:25:47;;;;;;;;;;;;;;;6.50;90.32;99316.02;109076;1292;22462;-84
2024/01/02 13:28:17;;;;;;;;;;;;;;;6.47;89.96;99313.23;109267;1290;23200;-89
2024/01/02 13:30:47;;;;;;;;;;;;;;;6.44;90.09;99318.52;109330;1292;22457;-83
2024/01/02 13:33:16;;;;;;;;;;;;;;;6.48;90.43;99316.55;109212;1285;22391;-85
2024/01/02 13:36:00;;;;;;;;;;;;;;;6.49;90.29;99316.52;109093;1292;22544;-84
2024/01/02 13:38:27;;;;;;;;;;;;;;;6.51;90.36;99318.98;108640;1296;23251;-85
2024/01/02 13:41:04;;;;;;;;;;;;;;;6.54;90.42;99319.46;108994;1289;22494;-86
2024/01/02 13:43:32;;;;;;;;;;;;;;;6.49;89.64;99320.92;109197;1291;23232;-84
2024/01/02 13:46:10;;;;;;;;;;;;;;;6.43;89.63;99319.05;109688;1286;22455;-82
2024/01/02 13:48:59;;;;;;;;;;;;;;;6.41;89.81;99314.35;109921;1286;22425;-84
2024/01/02 13:51:28;;;;;;;;;;;;;;;6.42;89.61;99312.06;109916;1287;22504;-85
2024/01/02 13:53:58;;;;;;;;;;;;;;;6.40;89.18;99314.52;109412;1293;22467;-84
2024/01/02 13:56:27;;;;;;;;;;;;;;;6.36;89.52;99319.28;109465;1288;22459;-86
2024/01/02 13:59:03;;;;;;;;;;;;;;;6.33;89.38;99321.92;109727;1288;23149;-84
2024/01/02 14:01:32;;;;;;;;;;;;;;;6.29;89.32;99319.35;109439;1291;22528;-84
2024/01/02 14:04:03;;;;;;;;;;;;;;;6.27;89.33;99318.15;109452;1291;22451;-84
2024/01/02 14:07:07;;;;;;;;;;;;;;;6.24;88.98;99316.59;109343;1291;22455;-88
2024/01/02 14:16:10;;;;;;;;;;;;;;;6.23;88.62;99313.11;109723;1288;22463;-84
2024/01/02 14:18:38;;;;;;;;;;;;;;;6.20;88.64;99312.61;109696;1285;22513;-86
2024/01/02 14:21:14;;;;;;;;;;;;;;;6.15;88.61;99311.24;109916;1278;23345;-85
2024/01/02 14:24:00;;;;;;;;;;;;;;;6.13;88.80;99310.21;109670;1286;22453;-86
2024/01/02 14:26:32;;;;;;;;;;;;;;;6.19;89.29;99306.84;109602;1287;22432;-86
2024/01/02 14:29:03;;;;;;;;;;;;;;;6.24;89.18;99307.52;109524;1290;22448;-87
2024/01/02 14:31:50;;;;;;;;;;;;;;;6.24;88.76;99308.55;109570;1287;22471;-85
2024/01/02 14:34:52;;;;;;;;;;;;;;;6.24;88.72;99303.66;109788;1287;22462;-85
2024/01/02 14:37:39;;;;;;;;;;;;;;;6.25;88.57;99298.42;109495;1283;22465;-89
2024/01/02 14:40:10;;;;;;;;;;;;;;;6.24;88.58;99292.80;109698;1287;22447;-86
2024/01/02 14:42:52;;;;;;;;;;;;;;;6.20;88.31;99291.80;109808;1284;22436;-86
2024/01/02 14:45:30;;;;;;;;;;;;;;;6.19;88.14;99290.58;110070;1281;22434;-86
2024/01/02 14:48:20;;;;;;;;;;;;;;;6.14;87.94;99288.19;109971;1281;22415;-88
2024/01/02 14:50:53;;;;;;;;;;;;;;;6.13;88.13;99288.02;110041;1281;22333;-90
2024/01/02 14:53:47;;;;;;;;;;;;;;;6.12;87.88;99284.71;110120;1273;22367;-92
2024/01/02 14:57:00;;;;;;;;;;;;;;;6.08;88.22;99282.81;110019;1283;22460;-90
2024/01/02 14:59:33;;;;;;;;;;;;;;;6.07;88.11;99278.63;109417;1290;22459;-89
2024/01/02 15:02:18;;;;;;;;;;;;;;;6.02;87.80;99269.21;108817;1292;22547;-93
2024/01/02 15:05:07;;;;;;;;;;;;;;;5.98;87.82;99261.54;108955;1298;22461;-92
2024/01/02 15:07:50;;;;;;;;;;;;;;;5.91;87.57;99262.81;108958;1297;22448;-86
2024/01/02 15:10:27;;;;;;;;;;;;;;;5.83;87.66;99261.84;108918;1298;22463;-88
2024/01/02 15:13:07;;;;;;;;;;;;;;;5.80;87.86;99260.65;109045;1292;23239;-90
2024/01/02 15:15:47;;;;;;;;;;;;;;;5.72;87.67;99263.84;108379;1299;22504;-92
2024/01/02 15:18:38;;;;;;;;;;;;;;;5.67;87.80;99265.44;108439;1303;22460;-91
2024/01/02 15:21:21;;;;;;;;;;;;;;;5.64;87.84;99261.27;109035;1298;22463;-91
2024/01/02 15:24:01;;;;;;;;;;;;;;;5.64;88.07;99257.61;109026;1295;22467;-91
2024/01/02 15:26:36;;;;;;;;;;;;;;;5.65;88.11;99251.66;109048;1295;22536;-91
2024/01/02 15:29:09;;;;;;;;;;;;;;;5.65;88.01;99246.06;109395;1289;22460;-89
2024/01/02 15:31:46;;;;;;;;;;;;;;;5.62;88.09;99244.34;109238;1295;22766;-90
2024/01/02 15:34:15;;;;;;;;;;;;;;;5.61;88.15;99241.91;109409;1289;22511;-91
2024/01/02 15:37:07;;;;;;;;;;;;;;;5.60;88.21;99241.05;109957;1279;22515;-92
2024/01/02 15:39:38;;;;;;;;;;;;;;;5.58;87.96;99238.96;110232;1278;22238;-92
2024/01/02 15:42:09;;;;;;;;;;;;;;;5.54;88.00;99234.45;110059;1279;22414;-90
2024/01/02 15:44:40;;;;;;;;;;;;;;;5.50;87.99;99235.35;110125;1279;22633;-92
2024/01/02 15:47:27;;;;;;;;;;;;;;;5.44;87.85;99232.96;110194;1278;22328;-93
2024/01/02 15:49:56;;;;;;;;;;;;;;;5.39;87.91;99234.03;109894;1286;23078;-91